createdAt,value
2019-02-27T00:01:56.823Z,100373.52
2019-02-27T00:04:34.830Z,100370.08
2019-02-27T00:07:08.041Z,100360.42
2019-02-27T00:09:42.805Z,100358.31
2019-02-27T00:12:19.329Z,100359.52
2019-02-27T00:15:20.669Z,100353.12
2019-02-27T00:17:55.972Z,100356.70
2019-02-27T00:20:30.338Z,100353.38
2019-02-27T00:23:05.453Z,100355.95
2019-02-27T00:25:40.198Z,100352.77
2019-02-27T00:28:15.341Z,100342.52
2019-02-27T00:30:52.130Z,100350.11
2019-02-27T00:33:28.700Z,100345.56
2019-02-27T00:36:03.438Z,100349.73
2019-02-27T00:38:38.147Z,100354.72
2019-02-27T00:41:13.104Z,100354.72
2019-02-27T00:43:47.796Z,100343.95
2019-02-27T00:46:22.499Z,100349.70
2019-02-27T00:48:59.366Z,100346.70
2019-02-27T00:51:33.801Z,100348.49
2019-02-27T00:54:09.600Z,100335.55
2019-02-27T00:56:45.028Z,100338.84
2019-02-27T00:59:19.268Z,100335.33
2019-02-27T01:01:54.318Z,100333.34
2019-02-27T01:04:29.073Z,100330.25
2019-02-27T01:07:03.965Z,100333.75
2019-02-27T01:09:39.510Z,100329.27
2019-02-27T01:12:14.608Z,100325.44
2019-02-27T01:14:48.427Z,100329.36
2019-02-27T01:17:23.941Z,100334.06
2019-02-27T01:19:59.599Z,100321.81
2019-02-27T01:22:33.494Z,100316.27
2019-02-27T01:25:08.356Z,100301.02
2019-02-27T01:27:42.787Z,100301.02
2019-02-27T01:30:17.695Z,100304.19
2019-02-27T01:32:51.979Z,100308.03
2019-02-27T01:35:26.312Z,100319.18
2019-02-27T01:38:05.056Z,100307.91
2019-02-27T01:40:36.819Z,100303.28
2019-02-27T01:43:11.139Z,100299.67
2019-02-27T01:45:45.809Z,100298.87
2019-02-27T01:48:20.027Z,100302.95
2019-02-27T01:50:55.313Z,100297.59
2019-02-27T01:53:30.324Z,100288.41
2019-02-27T01:56:04.808Z,100291.59
2019-02-27T01:58:43.458Z,100285.09
2019-02-27T02:01:15.910Z,100276.23
2019-02-27T02:03:50.446Z,100277.50
2019-02-27T02:06:25.071Z,100260.53
2019-02-27T02:09:35.323Z,100260.53
2019-02-27T02:12:30.572Z,100267.41
2019-02-27T02:16:19.610Z,100261.32
2019-02-27T02:20:12.632Z,100261.32
2019-02-27T02:23:50.129Z,100262.14
2019-02-27T02:27:22.815Z,100255.34
2019-02-27T02:31:27.453Z,100248.73
2019-02-27T02:35:50.708Z,100249.61
2019-02-27T02:39:21.585Z,100243.39
2019-02-27T02:42:31.279Z,100243.39
2019-02-27T02:46:09.665Z,100240.48
2019-02-27T02:50:09.520Z,100238.08
2019-02-27T02:53:49.063Z,100236.09
2019-02-27T02:57:53.556Z,100236.09
2019-02-27T03:00:48.490Z,100237.73
2019-02-27T03:04:20.328Z,100232.95
2019-02-27T03:07:50.321Z,100232.95
2019-02-27T03:11:19.136Z,100237.13
2019-02-27T03:14:45.629Z,100231.05
2019-02-27T03:18:39.276Z,100230.19
2019-02-27T03:22:05.067Z,100225.59
2019-02-27T03:25:42.801Z,100228.38
2019-02-27T03:29:31.969Z,100223.52
2019-02-27T03:32:44.787Z,100229.19
2019-02-27T03:36:24.862Z,100228.94
2019-02-27T03:39:48.214Z,100225.53
2019-02-27T03:43:46.115Z,100233.69
2019-02-27T03:47:39.483Z,100220.11
2019-02-27T03:51:24.784Z,100224.14
2019-02-27T03:54:35.325Z,100224.14
2019-02-27T03:58:35.707Z,100228.47
2019-02-27T04:02:45.055Z,100225.66
2019-02-27T04:06:21.334Z,100222.75
2019-02-27T04:08:54.890Z,100219.85
2019-02-27T04:11:30.369Z,100216.54
2019-02-27T04:14:31.076Z,100217.59
2019-02-27T04:17:07.530Z,100217.44
2019-02-27T04:19:42.535Z,100215.66
2019-02-27T04:22:17.128Z,100209.78
2019-02-27T04:24:56.371Z,100209.78
2019-02-27T04:27:28.311Z,100217.03
2019-02-27T04:30:04.699Z,100211.34
2019-02-27T04:32:48.678Z,100203.23
2019-02-27T04:35:25.452Z,100202.02
2019-02-27T04:38:04.320Z,100200.98
2019-02-27T04:40:41.740Z,100200.98
2019-02-27T04:43:16.368Z,100197.77
2019-02-27T04:45:51.812Z,100194.13
2019-02-27T04:48:53.880Z,100194.13
2019-02-27T04:51:31.373Z,100197.06
2019-02-27T04:54:08.023Z,100197.63
2019-02-27T04:56:50.538Z,100198.56
2019-02-27T04:59:25.125Z,100199.68
2019-02-27T05:01:59.903Z,100196.06
2019-02-27T05:04:36.043Z,100200.57
2019-02-27T05:07:10.809Z,100196.16
2019-02-27T05:09:45.713Z,100203.45
2019-02-27T05:12:21.599Z,100198.73
2019-02-27T05:14:55.718Z,100197.27
2019-02-27T05:17:32.343Z,100198.53
2019-02-27T05:20:11.630Z,100198.73
2019-02-27T05:22:44.493Z,100204.27
2019-02-27T05:25:20.316Z,100213.33
2019-02-27T05:27:54.652Z,100215.52
2019-02-27T05:30:29.329Z,100212.83
2019-02-27T05:33:03.985Z,100212.83
2019-02-27T05:35:38.543Z,100212.64
2019-02-27T05:38:13.088Z,100211.17
2019-02-27T05:40:50.814Z,100218.78
2019-02-27T05:43:25.789Z,100222.86
2019-02-27T05:46:03.187Z,100224.63
2019-02-27T05:48:38.105Z,100221.41
2019-02-27T05:51:13.139Z,100215.22
2019-02-27T05:53:48.207Z,100222.42
2019-02-27T05:56:22.648Z,100221.25
2019-02-27T05:58:56.835Z,100219.94
2019-02-27T06:01:32.039Z,100219.81
2019-02-27T06:04:07.325Z,100220.45
2019-02-27T06:06:45.008Z,100219.34
2019-02-27T06:09:21.052Z,100226.30
2019-02-27T06:11:56.454Z,100219.45
2019-02-27T06:14:31.854Z,100225.88
2019-02-27T06:17:06.839Z,100222.44
2019-02-27T06:19:41.826Z,100225.41
2019-02-27T06:22:17.546Z,100219.88
2019-02-27T06:24:52.315Z,100214.57
2019-02-27T06:27:27.083Z,100214.57
2019-02-27T06:30:02.276Z,100215.68
2019-02-27T06:32:37.516Z,100209.54
2019-02-27T06:35:12.796Z,100215.73
2019-02-27T06:37:51.748Z,100215.73
2019-02-27T06:40:31.767Z,100228.54
2019-02-27T06:43:07.326Z,100215.22
2019-02-27T06:45:45.499Z,100216.95
2019-02-27T06:48:18.907Z,100209.78
2019-02-27T06:50:54.091Z,100213.65
2019-02-27T06:53:30.132Z,100212.94
2019-02-27T06:56:06.208Z,100216.13
2019-02-27T06:58:40.794Z,100208.50
2019-02-27T07:01:16.017Z,100214.73
2019-02-27T07:03:50.762Z,100210.59
2019-02-27T07:06:26.895Z,100209.62
2019-02-27T07:09:02.472Z,100208.16
2019-02-27T07:14:27.002Z,100208.86
2019-02-27T07:17:01.518Z,100206.63
2019-02-27T07:19:35.504Z,100193.86
2019-02-27T07:22:12.516Z,100191.52
2019-02-27T07:24:46.527Z,100191.52
2019-02-27T07:27:21.844Z,100182.78
2019-02-27T07:29:57.106Z,100182.78
2019-02-27T07:32:32.182Z,100185.89
2019-02-27T07:35:07.322Z,100172.60
2019-02-27T07:37:46.971Z,100189.77
2019-02-27T07:40:19.312Z,100189.77
2019-02-27T07:42:54.306Z,100188.89
2019-02-27T07:45:29.326Z,100192.26
2019-02-27T07:48:04.564Z,100193.98
2019-02-27T07:50:39.138Z,100189.63
2019-02-27T07:53:17.452Z,100181.30
2019-02-27T07:55:51.926Z,100175.58
2019-02-27T07:58:29.236Z,100181.61
2019-02-27T08:01:04.638Z,100175.28
2019-02-27T08:03:44.666Z,100179.72
2019-02-27T08:06:23.547Z,100177.36
2019-02-27T08:08:58.974Z,100176.00
2019-02-27T08:11:33.634Z,100172.03
2019-02-27T08:14:08.316Z,100164.00
2019-02-27T08:16:42.992Z,100164.00
2019-02-27T08:19:17.876Z,100164.65
2019-02-27T08:21:54.943Z,100169.24
2019-02-27T08:24:29.296Z,100161.72
2019-02-27T08:27:03.947Z,100151.38
2019-02-27T08:29:38.732Z,100151.77
2019-02-27T08:32:13.060Z,100153.42
2019-02-27T08:34:47.620Z,100159.31
2019-02-27T08:37:21.262Z,100161.05
2019-02-27T08:39:55.909Z,100161.05
2019-02-27T08:42:30.532Z,100170.71
2019-02-27T08:45:05.608Z,100163.09
2019-02-27T08:47:40.883Z,100161.30
2019-02-27T08:50:17.008Z,100160.07
2019-02-27T08:52:51.977Z,100161.08
2019-02-27T08:55:27.345Z,100157.84
2019-02-27T08:58:02.075Z,100156.98
2019-02-27T09:00:36.942Z,100147.91
2019-02-27T09:03:19.995Z,100152.45
2019-02-27T09:05:51.017Z,100144.05
2019-02-27T09:08:25.880Z,100135.03
2019-02-27T09:11:05.592Z,100132.48
2019-02-27T09:13:37.314Z,100127.50
2019-02-27T09:16:12.309Z,100133.02
2019-02-27T09:18:46.799Z,100131.69
2019-02-27T09:21:21.592Z,100129.00
2019-02-27T09:23:55.443Z,100126.02
2019-02-27T09:26:29.725Z,100119.98
2019-02-27T09:29:03.467Z,100116.19
2019-02-27T09:31:38.592Z,100116.07
2019-02-27T09:34:13.167Z,100113.36
2019-02-27T09:36:49.145Z,100113.36
2019-02-27T09:39:24.018Z,100104.38
2019-02-27T09:41:58.686Z,100103.12
2019-02-27T09:44:36.410Z,100098.73
2019-02-27T09:47:10.548Z,100103.72
2019-02-27T09:49:45.092Z,100105.27
2019-02-27T09:52:19.817Z,100097.86
2019-02-27T09:54:54.895Z,100089.93
2019-02-27T09:57:29.794Z,100090.93
2019-02-27T10:00:30.303Z,100084.90
2019-02-27T10:03:04.891Z,100079.83
2019-02-27T10:05:40.810Z,100083.65
2019-02-27T10:08:15.629Z,100084.53
2019-02-27T10:10:49.285Z,100076.14
2019-02-27T10:13:23.726Z,100073.22
2019-02-27T10:16:01.364Z,100074.21
2019-02-27T10:18:34.615Z,100066.84
2019-02-27T10:21:09.467Z,100066.80
2019-02-27T10:23:44.856Z,100062.42
2019-02-27T10:26:20.463Z,100059.82
2019-02-27T10:28:55.864Z,100059.55
2019-02-27T10:31:30.444Z,100047.99
2019-02-27T10:34:05.883Z,100047.48
2019-02-27T10:36:40.591Z,100042.20
2019-02-27T10:39:14.795Z,100044.64
2019-02-27T10:41:51.866Z,100034.22
2019-02-27T10:44:26.332Z,100033.30
2019-02-27T10:47:00.874Z,100031.39
2019-02-27T10:49:38.242Z,100030.83
2019-02-27T10:52:12.652Z,100020.44
2019-02-27T10:54:46.435Z,100017.58
2019-02-27T10:57:24.312Z,100005.65
2019-02-27T10:59:58.645Z,100005.65
2019-02-27T11:02:33.396Z,99999.63
2019-02-27T11:05:10.546Z,99985.73
2019-02-27T11:07:46.585Z,99985.73
2019-02-27T11:10:27.716Z,99983.81
2019-02-27T11:13:06.984Z,99978.06
2019-02-27T11:15:44.802Z,99969.58
2019-02-27T11:18:19.774Z,99954.94
2019-02-27T11:20:55.706Z,99954.94
2019-02-27T11:23:32.357Z,99946.36
2019-02-27T11:26:09.554Z,99947.13
2019-02-27T11:28:49.811Z,99947.13
2019-02-27T11:31:28.494Z,99935.16
2019-02-27T11:34:05.130Z,99913.88
2019-02-27T11:36:44.952Z,99913.88
2019-02-27T11:39:24.943Z,99928.70
2019-02-27T11:42:04.374Z,99910.83
2019-02-27T11:44:38.520Z,99906.23
2019-02-27T11:47:22.011Z,99898.88
2019-02-27T11:49:57.021Z,99893.19
2019-02-27T11:52:32.322Z,99883.55
2019-02-27T11:55:15.011Z,99872.31
2019-02-27T11:58:46.755Z,99860.69
2019-02-27T12:01:23.756Z,99860.69
2019-02-27T12:03:58.336Z,99867.98
2019-02-27T12:06:33.054Z,99866.55
2019-02-27T12:09:10.573Z,99861.18
2019-02-27T12:11:48.475Z,99847.97
2019-02-27T12:14:26.986Z,99847.97
2019-02-27T12:17:09.884Z,99849.39
2019-02-27T12:19:57.557Z,99849.39
2019-02-27T12:22:32.978Z,99845.84
2019-02-27T12:25:11.686Z,99827.41
2019-02-27T12:27:49.761Z,99827.41
2019-02-27T12:30:25.310Z,99831.70
2019-02-27T12:33:00.345Z,99819.59
2019-02-27T12:35:37.228Z,99815.72
2019-02-27T12:38:12.333Z,99815.08
2019-02-27T12:40:47.034Z,99807.23
2019-02-27T12:43:25.168Z,99797.14
2019-02-27T12:46:00.916Z,99794.42
2019-02-27T12:48:39.154Z,99792.57
2019-02-27T12:51:14.310Z,99783.87
2019-02-27T12:53:54.631Z,99784.93
2019-02-27T12:56:29.791Z,99781.23
2019-02-27T12:59:04.316Z,99778.94
2019-02-27T13:01:40.010Z,99770.88
2019-02-27T13:04:16.589Z,99772.02
2019-02-27T13:06:50.986Z,99754.78
2019-02-27T13:09:25.670Z,99756.70
2019-02-27T13:12:00.464Z,99750.92
2019-02-27T13:14:38.839Z,99739.90
2019-02-27T13:17:15.324Z,99746.03
2019-02-27T13:19:49.661Z,99717.33
2019-02-27T13:22:26.303Z,99717.33
2019-02-27T13:25:00.688Z,99714.05
2019-02-27T13:27:35.371Z,99701.36
2019-02-27T13:30:13.685Z,99703.97
2019-02-27T13:32:51.143Z,99704.89
2019-02-27T13:35:28.678Z,99692.05
2019-02-27T13:38:11.139Z,99686.56
2019-02-27T13:40:49.054Z,99679.13
2019-02-27T13:43:24.385Z,99678.45
2019-02-27T13:46:00.530Z,99671.78
2019-02-27T13:48:37.378Z,99672.94
2019-02-27T13:51:13.665Z,99663.66
2019-02-27T13:53:49.960Z,99660.10
2019-02-27T13:56:25.146Z,99660.42
2019-02-27T13:59:00.862Z,99657.09
2019-02-27T14:01:37.893Z,99645.20
2019-02-27T14:04:13.091Z,99649.97
2019-02-27T14:06:50.313Z,99648.21
2019-02-27T14:09:25.107Z,99648.34
2019-02-27T14:11:59.847Z,99648.13
2019-02-27T14:14:34.613Z,99644.26
2019-02-27T14:17:08.641Z,99638.09
2019-02-27T14:19:43.532Z,99639.36
2019-02-27T14:22:18.435Z,99630.61
2019-02-27T14:24:54.869Z,99628.33
2019-02-27T14:27:31.814Z,99620.89
2019-02-27T14:30:14.075Z,99620.44
2019-02-27T14:32:49.073Z,99620.58
2019-02-27T14:35:27.713Z,99608.86
2019-02-27T14:38:02.633Z,99605.81
2019-02-27T14:40:40.953Z,99613.06
2019-02-27T14:43:16.460Z,99607.49
2019-02-27T14:45:51.692Z,99607.27
2019-02-27T14:48:26.583Z,99607.27
2019-02-27T14:51:01.924Z,99599.74
2019-02-27T14:53:37.435Z,99599.74
2019-02-27T14:56:12.577Z,99611.24
2019-02-27T14:58:47.007Z,99607.70
2019-02-27T15:01:27.540Z,99605.31
2019-02-27T15:04:02.775Z,99602.44
2019-02-27T15:06:37.835Z,99602.44
2019-02-27T15:09:12.855Z,99601.16
2019-02-27T15:11:50.606Z,99602.20
2019-02-27T15:14:25.527Z,99599.15
2019-02-27T15:17:00.638Z,99580.36
2019-02-27T15:19:36.997Z,99580.36
2019-02-27T15:22:13.834Z,99589.39
2019-02-27T15:24:48.549Z,99581.66
2019-02-27T15:27:24.873Z,99576.45
2019-02-27T15:29:59.116Z,99576.45
2019-02-27T15:32:33.852Z,99575.35
2019-02-27T15:35:08.931Z,99573.58
2019-02-27T15:37:44.471Z,99571.81
2019-02-27T15:40:21.712Z,99558.16
2019-02-27T15:42:57.617Z,99558.16
2019-02-27T15:45:32.574Z,99556.05
2019-02-27T15:48:07.689Z,99550.58
2019-02-27T15:50:42.548Z,99556.33
2019-02-27T15:53:16.475Z,99559.01
2019-02-27T15:55:51.150Z,99538.27
2019-02-27T15:58:28.048Z,99538.27
2019-02-27T16:01:03.124Z,99543.95
2019-02-27T16:03:38.818Z,99539.89
2019-02-27T16:06:13.144Z,99536.56
2019-02-27T16:08:47.785Z,99535.32
2019-02-27T16:11:22.574Z,99526.14
2019-02-27T16:13:57.190Z,99525.14
2019-02-27T16:16:31.812Z,99525.14
2019-02-27T16:19:07.976Z,99520.36
2019-02-27T16:21:42.517Z,99516.15
2019-02-27T16:24:18.050Z,99506.34
2019-02-27T16:26:53.662Z,99516.48
2019-02-27T16:29:28.601Z,99513.97
2019-02-27T16:32:03.585Z,99513.14
2019-02-27T16:34:37.465Z,99510.84
2019-02-27T16:37:11.423Z,99516.48
2019-02-27T16:39:46.160Z,99516.72
2019-02-27T16:42:20.625Z,99515.52
2019-02-27T16:44:57.435Z,99518.52
2019-02-27T16:47:32.819Z,99518.52
2019-02-27T16:50:17.238Z,99512.64
2019-02-27T16:52:52.953Z,99516.08
2019-02-27T16:55:28.369Z,99517.44
2019-02-27T16:58:04.011Z,99513.78
2019-02-27T17:00:39.806Z,99513.78
2019-02-27T17:03:14.813Z,99511.45
2019-02-27T17:05:49.819Z,99499.38
2019-02-27T17:08:24.315Z,99504.31
2019-02-27T17:10:59.778Z,99498.78
2019-02-27T17:13:34.325Z,99495.20
2019-02-27T17:16:10.853Z,99489.70
2019-02-27T17:18:45.794Z,99487.89
2019-02-27T17:21:22.592Z,99485.42
2019-02-27T17:23:57.534Z,99497.66
2019-02-27T17:26:32.131Z,99490.99
2019-02-27T17:29:07.422Z,99490.99
2019-02-27T17:31:49.322Z,99488.81
2019-02-27T17:34:19.333Z,99482.85
2019-02-27T17:36:54.158Z,99473.80
2019-02-27T17:39:30.571Z,99483.81
2019-02-27T17:42:05.556Z,99481.36
2019-02-27T17:44:39.646Z,99482.13
2019-02-27T17:47:13.537Z,99482.13
2019-02-27T17:49:47.780Z,99472.87
2019-02-27T17:52:22.646Z,99472.87
2019-02-27T17:54:56.718Z,99482.73
2019-02-27T17:57:31.578Z,99483.52
2019-02-27T18:00:12.919Z,99486.58
2019-02-27T18:02:47.849Z,99491.31
2019-02-27T18:05:25.511Z,99485.73
2019-02-27T18:07:58.807Z,99486.40
2019-02-27T18:10:37.101Z,99484.14
2019-02-27T18:13:10.707Z,99491.09
2019-02-27T18:15:44.422Z,99480.63
2019-02-27T18:18:19.309Z,99480.63
2019-02-27T18:20:56.708Z,99483.23
2019-02-27T18:23:31.149Z,99485.27
2019-02-27T18:26:06.047Z,99484.86
2019-02-27T18:28:42.144Z,99486.73
2019-02-27T18:31:17.326Z,99486.60
2019-02-27T18:33:52.029Z,99492.80
2019-02-27T18:36:26.694Z,99485.30
2019-02-27T18:39:02.517Z,99484.91
2019-02-27T18:41:39.819Z,99486.97
2019-02-27T18:44:14.540Z,99486.97
2019-02-27T18:46:49.521Z,99490.22
2019-02-27T18:49:24.692Z,99490.22
2019-02-27T18:51:59.059Z,99495.93
2019-02-27T18:54:34.185Z,99493.41
2019-02-27T18:57:11.889Z,99486.09
2019-02-27T18:59:46.301Z,99486.09
2019-02-27T19:02:30.341Z,99486.27
2019-02-27T19:05:06.651Z,99488.94
2019-02-27T19:07:42.636Z,99491.48
2019-02-27T19:10:17.357Z,99491.48
2019-02-27T19:12:52.316Z,99488.98
2019-02-27T19:15:27.426Z,99483.96
2019-02-27T19:18:03.697Z,99482.61
2019-02-27T19:20:40.577Z,99484.12
2019-02-27T19:23:17.722Z,99464.70
2019-02-27T19:25:51.725Z,99464.70
2019-02-27T19:28:26.550Z,99468.84
2019-02-27T19:31:01.002Z,99477.36
2019-02-27T19:33:36.572Z,99477.36
2019-02-27T19:36:18.909Z,99465.03
2019-02-27T19:38:48.962Z,99466.84
2019-02-27T19:41:23.602Z,99464.98
2019-02-27T19:43:57.461Z,99467.31
2019-02-27T19:46:32.343Z,99456.69
2019-02-27T19:49:07.219Z,99456.69
2019-02-27T19:51:41.811Z,99455.11
2019-02-27T19:54:18.544Z,99456.05
2019-02-27T19:56:55.130Z,99454.67
2019-02-27T19:59:29.586Z,99445.84
2019-02-27T20:02:03.487Z,99447.88
2019-02-27T20:04:42.911Z,99443.30
2019-02-27T20:07:14.272Z,99419.67
2019-02-27T20:09:51.395Z,99419.67
2019-02-27T20:12:25.545Z,99428.83
2019-02-27T20:15:00.436Z,99429.22
2019-02-27T20:17:35.352Z,99429.22
2019-02-27T20:20:13.561Z,99425.53
2019-02-27T20:22:50.302Z,99411.61
2019-02-27T20:25:23.679Z,99411.61
2019-02-27T20:27:58.867Z,99421.05
2019-02-27T20:30:34.447Z,99412.77
2019-02-27T20:33:09.313Z,99421.32
2019-02-27T20:35:44.036Z,99421.32
2019-02-27T20:38:19.753Z,99417.17
2019-02-27T20:40:54.822Z,99407.48
2019-02-27T20:43:30.217Z,99412.88
2019-02-27T20:46:05.406Z,99406.14
2019-02-27T20:48:42.091Z,99413.72
2019-02-27T20:51:20.173Z,99408.73
2019-02-27T20:53:56.531Z,99408.73
2019-02-27T20:56:32.260Z,99405.70
2019-02-27T20:59:07.526Z,99404.41
2019-02-27T21:01:46.888Z,99400.91
2019-02-27T21:04:18.835Z,99400.91
2019-02-27T21:06:54.168Z,99413.52
2019-02-27T21:09:31.534Z,99410.04
2019-02-27T21:12:07.212Z,99411.70
2019-02-27T21:14:42.323Z,99411.70
2019-02-27T21:17:21.128Z,99411.73
2019-02-27T21:19:53.826Z,99407.31
2019-02-27T21:22:28.531Z,99410.73
2019-02-27T21:25:02.713Z,99404.27
2019-02-27T21:27:37.858Z,99410.02
2019-02-27T21:30:18.741Z,99410.48
2019-02-27T21:32:52.599Z,99406.52
2019-02-27T21:35:29.815Z,99405.85
2019-02-27T21:38:05.113Z,99408.40
2019-02-27T21:40:39.682Z,99404.34
2019-02-27T21:43:13.286Z,99410.44
2019-02-27T21:45:48.011Z,99401.52
2019-02-27T21:48:23.397Z,99402.02
2019-02-27T21:51:02.039Z,99398.13
2019-02-27T21:53:38.773Z,99397.13
2019-02-27T21:56:15.181Z,99400.42
2019-02-27T21:58:52.416Z,99396.58
2019-02-27T22:01:31.241Z,99400.25
2019-02-27T22:04:53.615Z,99402.41
2019-02-27T22:07:32.888Z,99398.54
2019-02-27T22:10:08.329Z,99394.28
2019-02-27T22:12:46.333Z,99394.28
2019-02-27T22:15:27.822Z,99406.07
2019-02-27T22:18:02.630Z,99406.07
2019-02-27T22:20:36.478Z,99402.41
2019-02-27T22:23:12.637Z,99402.47
2019-02-27T22:25:47.864Z,99397.60
2019-02-27T22:28:26.318Z,99397.69
2019-02-27T22:31:06.094Z,99393.33
2019-02-27T22:33:40.530Z,99400.25
2019-02-27T22:36:15.328Z,99393.16
2019-02-27T22:39:01.529Z,99392.23
2019-02-27T22:41:40.672Z,99384.05
2019-02-27T22:44:15.043Z,99385.33
2019-02-27T22:46:49.701Z,99383.43
2019-02-27T22:49:25.037Z,99391.17
2019-02-27T22:52:01.092Z,99386.75
2019-02-27T22:54:36.109Z,99382.59
2019-02-27T22:57:14.241Z,99378.80
2019-02-27T22:59:49.331Z,99370.78
2019-02-27T23:02:24.944Z,99364.66
2019-02-27T23:05:01.368Z,99364.80
2019-02-27T23:07:37.530Z,99364.53
2019-02-27T23:10:13.653Z,99371.72
2019-02-27T23:12:47.475Z,99371.72
2019-02-27T23:15:24.769Z,99360.81
2019-02-27T23:17:58.988Z,99364.00
2019-02-27T23:20:33.796Z,99356.52
2019-02-27T23:23:08.415Z,99354.05
2019-02-27T23:25:42.782Z,99352.07
2019-02-27T23:28:17.877Z,99350.56
2019-02-27T23:30:52.523Z,99343.84
2019-02-27T23:33:29.038Z,99332.84
2019-02-27T23:36:03.838Z,99332.84
2019-02-27T23:38:38.552Z,99344.13
2019-02-27T23:41:13.315Z,99335.03
2019-02-27T23:43:47.850Z,99335.03
2019-02-27T23:46:22.326Z,99340.02
2019-02-27T23:48:56.820Z,99334.41
2019-02-27T23:51:32.590Z,99331.40
2019-02-27T23:54:06.831Z,99338.87
2019-02-27T23:56:42.702Z,99335.31
2019-02-27T23:59:17.921Z,99330.44
